Dell City, Texas
Current Conditions -  °F | °C
As of 10:51 AM on Sunday 23 Nov 2014 (Local Time) from KGDP Reporting Station
Clear Clear  
Wind Chill: 58°   Ceiling: Unl
Heat Index: 58°   Visibility: 10mi
Dew Point: 24°   Wind: 40mph
Humidity: 27%   Direction: 240°WSW
Pressure: 29.81"   Gusts: 54mph
Location:  31.94°N, 105.2°W
Report Text: KGDP 231751Z AUTO 24035G47KT 10SM CLR 14/M04 A2981 RMK AO2 PK WND 25052/1716 SLP050 T01441044 10144 20072 58008
Loading
Personal Weather Stations






























Interactive Weather Map New forecast layout! Learn more

10-Day Weather Forecast

Advertisements
Track Severe Weather on mobile